createdAt,value
2019-05-13T00:00:26.582Z,2.30
2019-05-13T00:05:30.672Z,2.50
2019-05-13T00:10:34.973Z,2.22
2019-05-13T00:15:37.799Z,2.70
2019-05-13T00:20:40.452Z,3.25
2019-05-13T00:25:44.505Z,2.83
2019-05-13T00:30:47.444Z,2.90
2019-05-13T00:35:50.207Z,3.00
2019-05-13T00:40:54.538Z,2.70
2019-05-13T00:45:57.930Z,2.67
2019-05-13T00:51:00.603Z,2.95
2019-05-13T00:56:05.476Z,2.90
2019-05-13T01:01:08.133Z,2.60
2019-05-13T01:06:10.796Z,2.83
2019-05-13T01:11:15.233Z,2.83
2019-05-13T01:16:17.965Z,3.40
2019-05-13T01:21:20.707Z,2.55
2019-05-13T01:26:23.384Z,3.20
2019-05-13T01:31:26.099Z,3.00
2019-05-13T01:36:28.811Z,2.50
2019-05-13T01:41:33.393Z,2.62
2019-05-13T01:46:35.836Z,3.17
2019-05-13T01:51:38.826Z,3.40
2019-05-13T01:56:41.474Z,3.10
2019-05-13T02:01:44.341Z,2.90
2019-05-13T02:07:06.499Z,2.58
2019-05-13T02:12:13.473Z,3.30
2019-05-13T02:17:16.231Z,2.90
2019-05-13T02:22:19.274Z,3.37
2019-05-13T02:27:21.931Z,2.80
2019-05-13T02:32:24.592Z,3.37
2019-05-13T02:37:29.607Z,3.15
2019-05-13T02:42:32.703Z,3.22
2019-05-13T02:47:35.780Z,3.10
2019-05-13T02:52:38.509Z,3.17
2019-05-13T02:57:43.621Z,3.70
2019-05-13T03:02:45.929Z,3.45
2019-05-13T03:07:48.654Z,3.70
2019-05-13T03:12:53.458Z,3.95
2019-05-13T03:17:55.779Z,3.95
2019-05-13T03:22:58.451Z,3.90
2019-05-13T03:28:03.283Z,3.95
2019-05-13T03:33:10.999Z,4.15
2019-05-13T03:38:12.787Z,4.12
2019-05-13T03:43:15.946Z,4.25
2019-05-13T03:48:23.545Z,3.90
2019-05-13T03:53:44.454Z,4.47
2019-05-13T03:58:47.933Z,3.90
2019-05-13T04:03:52.749Z,4.42
2019-05-13T04:09:14.533Z,4.37
2019-05-13T04:14:02.905Z,4.28
2019-05-13T04:19:04.127Z,4.40
2019-05-13T04:24:07.872Z,4.60
2019-05-13T04:29:13.221Z,4.50
2019-05-13T04:34:15.097Z,4.33
2019-05-13T04:39:38.979Z,5.03
2019-05-13T04:44:23.924Z,4.45
2019-05-13T04:49:27.055Z,5.78
2019-05-13T04:54:33.106Z,5.53
2019-05-13T04:59:40.059Z,4.67
2019-05-13T05:04:57.102Z,4.72
2019-05-13T05:10:30.344Z,3.77
2019-05-13T05:15:52.209Z,4.70
2019-05-13T05:21:01.598Z,4.47
2019-05-13T05:32:01.989Z,4.35
2019-05-13T05:37:13.993Z,4.75
2019-05-13T05:42:18.464Z,4.53
2019-05-13T05:47:21.470Z,3.70
2019-05-13T05:52:27.442Z,5.00
2019-05-13T05:57:31.534Z,4.33
2019-05-13T06:02:35.857Z,5.00
2019-05-13T06:07:42.181Z,4.80
2019-05-13T06:12:45.147Z,4.72
2019-05-13T06:17:47.953Z,5.00
2019-05-13T06:22:51.557Z,4.87
2019-05-13T06:27:54.409Z,4.70
2019-05-13T06:32:57.415Z,4.97
2019-05-13T06:38:01.397Z,6.12
2019-05-13T06:43:04.185Z,5.47
2019-05-13T06:48:07.282Z,4.55
2019-05-13T06:53:12.441Z,4.78
2019-05-13T06:58:14.421Z,4.58
2019-05-13T07:03:17.097Z,5.45
2019-05-13T07:08:22.012Z,4.72
2019-05-13T07:13:24.211Z,4.37
2019-05-13T07:18:26.943Z,3.83
2019-05-13T07:23:31.861Z,4.15
2019-05-13T07:28:34.334Z,4.00
2019-05-13T07:33:37.076Z,4.33
2019-05-13T07:38:41.606Z,4.10
2019-05-13T07:43:44.417Z,4.12
2019-05-13T07:48:52.073Z,3.60
2019-05-13T07:53:54.337Z,3.42
2019-05-13T07:58:57.051Z,4.00
2019-05-13T08:04:01.995Z,3.22
2019-05-13T08:09:25.073Z,2.35
2019-05-13T08:14:27.728Z,2.83
2019-05-13T08:19:32.611Z,2.37
2019-05-13T08:24:34.772Z,2.02
2019-05-13T08:29:37.509Z,3.02
2019-05-13T08:34:41.785Z,2.30
2019-05-13T08:39:44.669Z,2.40
2019-05-13T08:44:48.867Z,2.25
2019-05-13T08:49:52.145Z,2.05
2019-05-13T08:54:54.936Z,1.80
2019-05-13T08:59:57.588Z,2.17
2019-05-13T09:05:13.309Z,1.90
2019-05-13T09:10:16.183Z,2.45
2019-05-13T09:15:18.845Z,1.90
2019-05-13T09:20:22.072Z,1.80
2019-05-13T09:25:24.917Z,1.95
2019-05-13T09:30:27.661Z,1.60
2019-05-13T09:35:31.589Z,1.72
2019-05-13T09:40:34.469Z,1.80
2019-05-13T09:45:37.590Z,1.47
2019-05-13T09:50:42.462Z,1.55
2019-05-13T09:55:44.696Z,1.50
2019-05-13T10:00:47.500Z,1.37
2019-05-13T10:05:51.892Z,1.87
2019-05-13T10:10:54.690Z,2.10
2019-05-13T10:16:00.035Z,1.87
2019-05-13T10:21:03.510Z,1.70
2019-05-13T10:26:08.403Z,2.00
2019-05-13T10:31:12.017Z,1.65
2019-05-13T10:36:15.162Z,1.77
2019-05-13T10:41:17.832Z,1.50
2019-05-13T10:46:22.058Z,1.62
2019-05-13T10:51:25.128Z,1.40
2019-05-13T10:56:27.891Z,1.60
2019-05-13T11:01:32.769Z,1.52
2019-05-13T11:06:35.003Z,1.67
2019-05-13T11:11:38.034Z,1.70
2019-05-13T11:16:42.625Z,2.22
2019-05-13T11:21:50.451Z,1.65
2019-05-13T11:26:52.326Z,1.75
2019-05-13T11:31:53.928Z,1.90
2019-05-13T11:36:56.859Z,1.47
2019-05-13T11:42:02.118Z,1.75
2019-05-13T11:47:03.967Z,1.50
2019-05-13T11:52:06.620Z,1.90
2019-05-13T11:57:12.356Z,1.77
2019-05-13T12:02:14.169Z,1.40
2019-05-13T12:07:16.831Z,1.72
2019-05-13T12:12:21.966Z,1.60
2019-05-13T12:17:24.302Z,1.57
2019-05-13T12:22:27.018Z,1.70
2019-05-13T12:27:31.683Z,1.50
2019-05-13T12:32:34.136Z,1.47
2019-05-13T12:37:56.226Z,1.70
2019-05-13T12:43:01.311Z,1.75
2019-05-13T12:48:03.493Z,1.47
2019-05-13T12:53:06.172Z,1.35
2019-05-13T12:58:08.895Z,1.30
2019-05-13T13:03:13.381Z,1.30
2019-05-13T13:13:26.615Z,1.57
2019-05-13T13:18:25.011Z,1.40
2019-05-13T13:23:27.737Z,1.55
2019-05-13T13:28:34.254Z,1.47
2019-05-13T13:33:35.919Z,1.35
2019-05-13T13:38:42.684Z,1.30
2019-05-13T13:43:43.037Z,1.60
2019-05-13T13:48:45.750Z,2.00
2019-05-13T13:53:48.493Z,1.40
2019-05-13T13:58:51.217Z,1.55
2019-05-13T14:03:55.540Z,1.47
2019-05-13T14:07:13.475Z,1.45
2019-05-13T14:08:58.544Z,1.55
2019-05-13T14:14:02.211Z,1.75
2019-05-13T14:19:05.031Z,1.50
2019-05-13T14:24:07.767Z,1.90
2019-05-13T14:29:12.363Z,2.00
2019-05-13T14:34:14.820Z,1.85
2019-05-13T14:39:18.006Z,1.90
2019-05-13T14:44:21.949Z,1.72
2019-05-13T14:49:25.138Z,2.00
2019-05-13T14:54:27.869Z,1.70
2019-05-13T14:59:31.491Z,1.80
2019-05-13T15:04:34.345Z,1.77
2019-05-13T15:09:37.012Z,1.80
2019-05-13T15:14:42.292Z,1.85
2019-05-13T15:19:44.197Z,2.62
2019-05-13T15:24:46.938Z,2.27
2019-05-13T15:29:51.611Z,2.22
2019-05-13T15:34:54.070Z,2.27
2019-05-13T15:39:56.800Z,2.40
2019-05-13T15:45:01.799Z,2.95
2019-05-13T15:50:05.154Z,2.20
2019-05-13T15:55:07.967Z,2.20
2019-05-13T16:00:12.543Z,2.30
2019-05-13T16:05:15.940Z,2.40
2019-05-13T16:10:18.766Z,2.60
2019-05-13T16:15:21.826Z,2.70
2019-05-13T16:20:24.488Z,2.15
2019-05-13T16:25:27.447Z,2.37
2019-05-13T16:30:32.158Z,2.08
2019-05-13T16:35:34.638Z,2.40
2019-05-13T16:40:37.367Z,2.35
2019-05-13T16:45:42.328Z,1.87
2019-05-13T16:50:44.477Z,1.90
2019-05-13T16:55:47.129Z,1.80
2019-05-13T17:00:52.105Z,1.60
2019-05-13T17:05:54.240Z,2.10
2019-05-13T17:10:56.894Z,1.92
2019-05-13T17:16:01.406Z,2.12
2019-05-13T17:21:03.927Z,1.92
2019-05-13T17:26:06.580Z,1.92
2019-05-13T17:31:11.431Z,2.20
2019-05-13T17:36:13.711Z,2.27
2019-05-13T17:41:16.361Z,2.90
2019-05-13T17:46:19.023Z,3.17
2019-05-13T17:51:22.587Z,3.12
2019-05-13T17:56:25.368Z,3.15
2019-05-13T18:01:28.437Z,2.35
2019-05-13T18:06:31.157Z,2.30
2019-05-13T18:11:33.885Z,2.30
2019-05-13T18:16:36.550Z,2.15
2019-05-13T18:21:39.286Z,2.02
2019-05-13T18:26:42.217Z,2.45
2019-05-13T18:31:44.999Z,2.37
2019-05-13T18:36:48.004Z,2.75
2019-05-13T18:41:50.673Z,2.75
2019-05-13T18:46:54.109Z,3.10
2019-05-13T18:51:56.846Z,3.42
2019-05-13T18:57:01.657Z,3.20
2019-05-13T19:02:04.018Z,3.20
2019-05-13T19:07:07.822Z,3.05
2019-05-13T19:12:11.629Z,3.55
2019-05-13T19:17:14.621Z,3.37
2019-05-13T19:22:17.362Z,2.85
2019-05-13T19:27:21.605Z,2.90
2019-05-13T19:32:24.442Z,2.50
2019-05-13T19:37:27.104Z,2.92
2019-05-13T19:42:31.383Z,3.27
2019-05-13T19:47:34.257Z,3.10
2019-05-13T19:52:36.921Z,3.08
2019-05-13T19:57:39.662Z,3.67
2019-05-13T20:02:42.397Z,3.27
2019-05-13T20:07:45.135Z,3.75
2019-05-13T20:12:47.870Z,4.25
2019-05-13T20:17:52.107Z,5.65
2019-05-13T20:22:54.958Z,4.70
2019-05-13T20:27:57.626Z,5.17
2019-05-13T20:33:02.391Z,3.87
2019-05-13T20:38:04.756Z,3.37
2019-05-13T20:43:07.416Z,3.67
2019-05-13T20:48:11.962Z,3.52
2019-05-13T20:53:14.444Z,3.55
2019-05-13T20:58:17.129Z,3.60
2019-05-13T21:03:21.981Z,3.20
2019-05-13T21:08:24.215Z,3.25
2019-05-13T21:13:26.888Z,3.25
2019-05-13T21:18:31.569Z,3.35
2019-05-13T21:23:33.942Z,3.65
2019-05-13T21:28:36.618Z,2.98
2019-05-13T21:33:39.275Z,2.72
2019-05-13T21:38:42.000Z,2.95
2019-05-13T21:43:44.670Z,3.20
2019-05-13T21:48:47.338Z,3.20
2019-05-13T21:53:51.862Z,3.00
2019-05-13T21:58:54.466Z,2.77
2019-05-13T22:03:57.129Z,2.42
2019-05-13T22:08:59.788Z,3.25
2019-05-13T22:14:02.676Z,2.92
2019-05-13T22:19:05.481Z,2.60
2019-05-13T22:24:08.221Z,2.92
2019-05-13T22:29:10.873Z,3.37
2019-05-13T22:34:13.542Z,2.72
2019-05-13T22:39:16.211Z,2.62
2019-05-13T22:44:18.878Z,2.83
2019-05-13T22:49:22.214Z,2.77
2019-05-13T22:54:25.042Z,2.70
2019-05-13T22:59:27.847Z,2.85
2019-05-13T23:04:31.413Z,2.70
2019-05-13T23:09:34.237Z,2.58
2019-05-13T23:14:36.880Z,2.75
2019-05-13T23:19:41.444Z,2.62
2019-05-13T23:24:44.009Z,2.50
2019-05-13T23:29:46.681Z,2.65
2019-05-13T23:34:51.224Z,2.62
2019-05-13T23:39:54.091Z,2.40
2019-05-13T23:44:56.825Z,2.67
2019-05-13T23:50:01.703Z,2.95
2019-05-13T23:55:06.031Z,2.80
